^^
Saratoga-Weather Station Historical Data
Daily Summary for January 18, 2022 Units:  Both    English   Metric
Daily Weekly Monthly Yearly Custom
  High: Low: Average:
Temperature: 46.6 °F /  8.1 °C 39 °F /  3.9 °C 41.5 °F /  5.3 °C
Dew Point: 41.4 °F /  5.2 °C 35.2 °F /  1.8 °C 38.1 °F /  3.4 °C
Humidity: 95% 75% 88%
Wind Speed: 9mph /  14.5km/h - 2mph /  3.2km/h
Wind Gust: 12mph /  19.3km/h - -
Wind- - SSE
Pressure: 30.7 in /  1037.9 hPa 30.5 in /  1032.2 hPa -
Precipitation: 0 in /  0.0 mm    
Historical Graphs
 
 
Tabular Data for January 18, 2022
Time Temperature Dew Point Pressure Wind Wind Speed Wind Gust Humidity Rainfall Rate (Hourly) solar
00:04 39 °F /  3.9 °C 37.4 °F /  3 °C 30.6in /  1037.2hPa WNW 2.9mph /  4.7km/h 3mph /  4.8km/h 94% 0in /  0.0mm 0 W/m2
00:09 39 °F /  3.9 °C 37.4 °F /  3 °C 30.6in /  1037.2hPa Calm   1mph /  1.6km/h 94% 0in /  0.0mm 0 W/m2
00:14 39 °F /  3.9 °C 37.4 °F /  3 °C 30.6in /  1037.2hPa SW 2mph /  3.2km/h 2mph /  3.2km/h 94% 0in /  0.0mm 0 W/m2
00:19 39 °F /  3.9 °C 37.4 °F /  3 °C 30.6in /  1037.2hPa West 2mph /  3.2km/h 4mph /  6.4km/h 94% 0in /  0.0mm 0 W/m2
00:24 39 °F /  3.9 °C 37.4 °F /  3 °C 30.6in /  1037.2hPa West 2.9mph /  4.7km/h 7mph /  11.3km/h 94% 0in /  0.0mm 0 W/m2
00:29 39.2 °F /  4 °C 37.9 °F /  3.3 °C 30.6in /  1037.2hPa West 0.9mph /  1.4km/h 2mph /  3.2km/h 95% 0in /  0.0mm 0 W/m2
00:34 39.2 °F /  4 °C 37.6 °F /  3.1 °C 30.6in /  1037.2hPa West 2mph /  3.2km/h 6mph /  9.7km/h 94% 0in /  0.0mm 0 W/m2
00:39 39 °F /  3.9 °C 37.4 °F /  3 °C 30.6in /  1037.2hPa WNW 2.9mph /  4.7km/h 4mph /  6.4km/h 94% 0in /  0.0mm 0 W/m2
00:44 39 °F /  3.9 °C 37.4 °F /  3 °C 30.6in /  1036.9hPa WNW 2mph /  3.2km/h 4mph /  6.4km/h 94% 0in /  0.0mm 0 W/m2
00:49 39 °F /  3.9 °C 37.4 °F /  3 °C 30.6in /  1037.2hPa West 4mph /  6.4km/h 7mph /  11.3km/h 94% 0in /  0.0mm 0 W/m2
00:54 39 °F /  3.9 °C 37.8 °F /  3.2 °C 30.6in /  1037.2hPa South 0.9mph /  1.4km/h 6mph /  9.7km/h 95% 0in /  0.0mm 0 W/m2
00:59 39 °F /  3.9 °C 37.8 °F /  3.2 °C 30.6in /  1037.2hPa WNW 0.9mph /  1.4km/h 3mph /  4.8km/h 95% 0in /  0.0mm 0 W/m2
01:04 39 °F /  3.9 °C 37.4 °F /  3 °C 30.6in /  1037.2hPa Calm   6mph /  9.7km/h 94% 0in /  0.0mm 0 W/m2
01:09 39 °F /  3.9 °C 37.4 °F /  3 °C 30.6in /  1037.2hPa WNW 2mph /  3.2km/h 7mph /  11.3km/h 94% 0in /  0.0mm 0 W/m2
01:14 39 °F /  3.9 °C 37.4 °F /  3 °C 30.6in /  1037.2hPa WNW 2mph /  3.2km/h 4mph /  6.4km/h 94% 0in /  0.0mm 0 W/m2
01:19 39 °F /  3.9 °C 37.4 °F /  3 °C 30.6in /  1037.2hPa WNW 2mph /  3.2km/h 4mph /  6.4km/h 94% 0in /  0.0mm 0 W/m2
01:24 39 °F /  3.9 °C 37.4 °F /  3 °C 30.6in /  1037.2hPa WNW 2mph /  3.2km/h 3mph /  4.8km/h 94% 0in /  0.0mm 0 W/m2
01:29 39 °F /  3.9 °C 37.4 °F /  3 °C 30.6in /  1037.2hPa West 6mph /  9.7km/h 6mph /  9.7km/h 94% 0in /  0.0mm 0 W/m2
01:34 39 °F /  3.9 °C 37.8 °F /  3.2 °C 30.6in /  1037.2hPa WNW 2mph /  3.2km/h 3mph /  4.8km/h 95% 0in /  0.0mm 0 W/m2
01:39 39 °F /  3.9 °C 37.8 °F /  3.2 °C 30.6in /  1037.2hPa WNW 2mph /  3.2km/h 4mph /  6.4km/h 95% 0in /  0.0mm 0 W/m2
01:44 39 °F /  3.9 °C 37.8 °F /  3.2 °C 30.6in /  1037.2hPa West 4mph /  6.4km/h 4mph /  6.4km/h 95% 0in /  0.0mm 0 W/m2
01:49 39 °F /  3.9 °C 37.8 °F /  3.2 °C 30.6in /  1037.2hPa West 2.9mph /  4.7km/h 4mph /  6.4km/h 95% 0in /  0.0mm 0 W/m2
01:54 39.2 °F /  4 °C 37.9 °F /  3.3 °C 30.6in /  1037.2hPa Calm   2mph /  3.2km/h 95% 0in /  0.0mm 0 W/m2
01:59 39.2 °F /  4 °C 37.9 °F /  3.3 °C 30.6in /  1037.2hPa Calm     95% 0in /  0.0mm 0 W/m2
02:04 39 °F /  3.9 °C 37.8 °F /  3.2 °C 30.6in /  1037.2hPa West 2mph /  3.2km/h 3mph /  4.8km/h 95% 0in /  0.0mm 0 W/m2
02:09 39 °F /  3.9 °C 37.8 °F /  3.2 °C 30.6in /  1037.2hPa West 2mph /  3.2km/h 4mph /  6.4km/h 95% 0in /  0.0mm 0 W/m2
02:14 39 °F /  3.9 °C 37.8 °F /  3.2 °C 30.6in /  1037.2hPa West 2mph /  3.2km/h 4mph /  6.4km/h 95% 0in /  0.0mm 0 W/m2
02:19 39.2 °F /  4 °C 37.9 °F /  3.3 °C 30.6in /  1037.2hPa WNW 0.9mph /  1.4km/h 6mph /  9.7km/h 95% 0in /  0.0mm 0 W/m2
02:24 39.4 °F /  4.1 °C 38.1 °F /  3.4 °C 30.6in /  1037.2hPa WNW 2mph /  3.2km/h 4mph /  6.4km/h 95% 0in /  0.0mm 0 W/m2
02:29 39.4 °F /  4.1 °C 38.1 °F /  3.4 °C 30.6in /  1037.2hPa West 4mph /  6.4km/h 5mph /  8km/h 95% 0in /  0.0mm 0 W/m2
02:34 39.6 °F /  4.2 °C 37.9 °F /  3.3 °C 30.6in /  1037.2hPa West 2mph /  3.2km/h 4mph /  6.4km/h 94% 0in /  0.0mm 0 W/m2
02:39 39.6 °F /  4.2 °C 38.3 °F /  3.5 °C 30.6in /  1037.2hPa West 2.9mph /  4.7km/h 4mph /  6.4km/h 95% 0in /  0.0mm 0 W/m2
02:44 39.7 °F /  4.3 °C 38.1 °F /  3.4 °C 30.6in /  1037.2hPa WNW 2.9mph /  4.7km/h 4mph /  6.4km/h 94% 0in /  0.0mm 0 W/m2
02:49 39.7 °F /  4.3 °C 38.1 °F /  3.4 °C 30.6in /  1037.2hPa West 2.9mph /  4.7km/h 4mph /  6.4km/h 94% 0in /  0.0mm 0 W/m2
02:54 39.7 °F /  4.3 °C 38.1 °F /  3.4 °C 30.6in /  1037.2hPa West 2.9mph /  4.7km/h 4mph /  6.4km/h 94% 0in /  0.0mm 0 W/m2
02:59 39.7 °F /  4.3 °C 38.1 °F /  3.4 °C 30.6in /  1037.2hPa West 4mph /  6.4km/h 4mph /  6.4km/h 94% 0in /  0.0mm 0 W/m2
03:04 39.7 °F /  4.3 °C 38.1 °F /  3.4 °C 30.6in /  1037.2hPa West 2mph /  3.2km/h 6mph /  9.7km/h 94% 0in /  0.0mm 0 W/m2
03:09 39.7 °F /  4.3 °C 38.1 °F /  3.4 °C 30.6in /  1037.2hPa WNW 0.9mph /  1.4km/h 7mph /  11.3km/h 94% 0in /  0.0mm 0 W/m2
03:14 39.7 °F /  4.3 °C 38.1 °F /  3.4 °C 30.6in /  1037.2hPa WNW 2mph /  3.2km/h 3mph /  4.8km/h 94% 0in /  0.0mm 0 W/m2
03:19 39.7 °F /  4.3 °C 38.1 °F /  3.4 °C 30.6in /  1037.2hPa West 2mph /  3.2km/h 3mph /  4.8km/h 94% 0in /  0.0mm 0 W/m2
03:24 39.7 °F /  4.3 °C 38.1 °F /  3.4 °C 30.6in /  1037.2hPa West 0.9mph /  1.4km/h 3mph /  4.8km/h 94% 0in /  0.0mm 0 W/m2
03:29 39.7 °F /  4.3 °C 38.1 °F /  3.4 °C 30.6in /  1037.2hPa West 2mph /  3.2km/h 4mph /  6.4km/h 94% 0in /  0.0mm 0 W/m2
03:34 39.7 °F /  4.3 °C 38.1 °F /  3.4 °C 30.6in /  1037.2hPa WNW 2mph /  3.2km/h 4mph /  6.4km/h 94% 0in /  0.0mm 0 W/m2
03:39 39.7 °F /  4.3 °C 38.1 °F /  3.4 °C 30.6in /  1037.2hPa West 2mph /  3.2km/h 3mph /  4.8km/h 94% 0in /  0.0mm 0 W/m2
03:44 39.9 °F /  4.4 °C 38.3 °F /  3.5 °C 30.6in /  1036.9hPa West 0.9mph /  1.4km/h 3mph /  4.8km/h 94% 0in /  0.0mm 0 W/m2
03:49 39.9 °F /  4.4 °C 38.3 °F /  3.5 °C 30.6in /  1036.9hPa West 2mph /  3.2km/h 2mph /  3.2km/h 94% 0in /  0.0mm 0 W/m2
03:54 39.9 °F /  4.4 °C 38.3 °F /  3.5 °C 30.6in /  1036.9hPa West 2mph /  3.2km/h 3mph /  4.8km/h 94% 0in /  0.0mm 0 W/m2
03:59 39.9 °F /  4.4 °C 38.3 °F /  3.5 °C 30.6in /  1036.9hPa West 2.9mph /  4.7km/h 3mph /  4.8km/h 94% 0in /  0.0mm 0 W/m2
04:04 39.9 °F /  4.4 °C 38.3 °F /  3.5 °C 30.6in /  1036.9hPa West 2mph /  3.2km/h 4mph /  6.4km/h 94% 0in /  0.0mm 0 W/m2
04:09 39.9 °F /  4.4 °C 38.3 °F /  3.5 °C 30.6in /  1036.9hPa WSW 2.9mph /  4.7km/h 6mph /  9.7km/h 94% 0in /  0.0mm 0 W/m2
04:14 39.9 °F /  4.4 °C 38.3 °F /  3.5 °C 30.6in /  1036.9hPa WNW 2.9mph /  4.7km/h 3mph /  4.8km/h 94% 0in /  0.0mm 0 W/m2
04:19 39.9 °F /  4.4 °C 38.3 °F /  3.5 °C 30.6in /  1036.9hPa West 4mph /  6.4km/h 8mph /  12.9km/h 94% 0in /  0.0mm 0 W/m2
04:24 39.9 °F /  4.4 °C 38.3 °F /  3.5 °C 30.6in /  1036.9hPa West 2mph /  3.2km/h 6mph /  9.7km/h 94% 0in /  0.0mm 0 W/m2
04:29 40.1 °F /  4.5 °C 38.5 °F /  3.6 °C 30.6in /  1036.9hPa West 2.9mph /  4.7km/h 8mph /  12.9km/h 94% 0in /  0.0mm 0 W/m2
04:34 40.1 °F /  4.5 °C 38.5 °F /  3.6 °C 30.6in /  1036.9hPa West 0.9mph /  1.4km/h 2mph /  3.2km/h 94% 0in /  0.0mm 0 W/m2
04:39 40.1 °F /  4.5 °C 38.5 °F /  3.6 °C 30.6in /  1036.9hPa WNW 2mph /  3.2km/h 2mph /  3.2km/h 94% 0in /  0.0mm 0 W/m2
04:44 40.3 °F /  4.6 °C 38.7 °F /  3.7 °C 30.6in /  1036.9hPa WNW 0.9mph /  1.4km/h 2mph /  3.2km/h 94% 0in /  0.0mm 0 W/m2
04:49 40.3 °F /  4.6 °C 38.7 °F /  3.7 °C 30.6in /  1036.9hPa WNW 2mph /  3.2km/h 2mph /  3.2km/h 94% 0in /  0.0mm 0 W/m2
04:54 40.3 °F /  4.6 °C 38.7 °F /  3.7 °C 30.6in /  1036.9hPa West 2.9mph /  4.7km/h 3mph /  4.8km/h 94% 0in /  0.0mm 0 W/m2
04:59 40.3 °F /  4.6 °C 38.7 °F /  3.7 °C 30.6in /  1036.9hPa West 2mph /  3.2km/h 3mph /  4.8km/h 94% 0in /  0.0mm 0 W/m2
05:04 40.5 °F /  4.7 °C 38.8 °F /  3.8 °C 30.6in /  1036.9hPa Calm   1mph /  1.6km/h 94% 0in /  0.0mm 0 W/m2
05:09 40.5 °F /  4.7 °C 38.8 °F /  3.8 °C 30.6in /  1036.9hPa Calm   3mph /  4.8km/h 94% 0in /  0.0mm 0 W/m2
05:14 40.5 °F /  4.7 °C 38.8 °F /  3.8 °C 30.6in /  1036.9hPa Calm     94% 0in /  0.0mm 0 W/m2
05:19 40.3 °F /  4.6 °C 38.7 °F /  3.7 °C 30.6in /  1036.9hPa Calm     94% 0in /  0.0mm 0 W/m2
05:24 40.3 °F /  4.6 °C 38.7 °F /  3.7 °C 30.6in /  1037.2hPa Calm     94% 0in /  0.0mm 0 W/m2
05:30 40.3 °F /  4.6 °C 38.7 °F /  3.7 °C 30.6in /  1037.2hPa Calm     94% 0in /  0.0mm 0 W/m2
05:35 40.1 °F /  4.5 °C 38.5 °F /  3.6 °C 30.6in /  1036.9hPa Calm     94% 0in /  0.0mm 0 W/m2
05:40 40.1 °F /  4.5 °C 38.5 °F /  3.6 °C 30.6in /  1036.9hPa Calm     94% 0in /  0.0mm 0 W/m2
05:45 39.9 °F /  4.4 °C 38.3 °F /  3.5 °C 30.6in /  1037.2hPa Calm   3mph /  4.8km/h 94% 0in /  0.0mm 0 W/m2
05:50 39.9 °F /  4.4 °C 38.3 °F /  3.5 °C 30.6in /  1036.9hPa Calm     94% 0in /  0.0mm 0 W/m2
05:55 39.7 °F /  4.3 °C 38.1 °F /  3.4 °C 30.6in /  1036.9hPa Calm   2mph /  3.2km/h 94% 0in /  0.0mm 0 W/m2
06:00 39.7 °F /  4.3 °C 38.1 °F /  3.4 °C 30.6in /  1036.9hPa Calm   2mph /  3.2km/h 94% 0in /  0.0mm 0 W/m2
06:05 39.7 °F /  4.3 °C 38.1 °F /  3.4 °C 30.6in /  1036.9hPa Calm     94% 0in /  0.0mm 0 W/m2
06:10 39.7 °F /  4.3 °C 38.1 °F /  3.4 °C 30.6in /  1037.2hPa Calm   2mph /  3.2km/h 94% 0in /  0.0mm 0 W/m2
06:15 39.7 °F /  4.3 °C 38.1 °F /  3.4 °C 30.6in /  1037.2hPa Calm     94% 0in /  0.0mm 0 W/m2
06:20 39.7 °F /  4.3 °C 38.1 °F /  3.4 °C 30.6in /  1037.2hPa Calm     94% 0in /  0.0mm 0 W/m2
06:25 39.7 °F /  4.3 °C 38.1 °F /  3.4 °C 30.6in /  1037.2hPa Calm     94% 0in /  0.0mm 0 W/m2
06:30 39.7 °F /  4.3 °C 38.5 °F /  3.6 °C 30.6in /  1037.2hPa SE 0.9mph /  1.4km/h 2mph /  3.2km/h 95% 0in /  0.0mm 0 W/m2
06:35 39.9 °F /  4.4 °C 38.7 °F /  3.7 °C 30.6in /  1037.2hPa Calm   3mph /  4.8km/h 95% 0in /  0.0mm 0 W/m2
06:40 39.9 °F /  4.4 °C 38.3 °F /  3.5 °C 30.6in /  1037.2hPa Calm     94% 0in /  0.0mm 0 W/m2
06:45 39.9 °F /  4.4 °C 38.3 °F /  3.5 °C 30.6in /  1037.2hPa NNE 0.9mph /  1.4km/h 3mph /  4.8km/h 94% 0in /  0.0mm 0 W/m2
06:50 40.1 °F /  4.5 °C 38.8 °F /  3.8 °C 30.6in /  1037.2hPa East 2mph /  3.2km/h 3mph /  4.8km/h 95% 0in /  0.0mm 0 W/m2
06:55 40.3 °F /  4.6 °C 39 °F /  3.9 °C 30.6in /  1037.2hPa Calm     95% 0in /  0.0mm 0 W/m2
07:00 40.3 °F /  4.6 °C 39 °F /  3.9 °C 30.6in /  1037.2hPa East 2mph /  3.2km/h 3mph /  4.8km/h 95% 0in /  0.0mm 0 W/m2
07:05 40.3 °F /  4.6 °C 39 °F /  3.9 °C 30.6in /  1037.2hPa Calm     95% 0in /  0.0mm 0 W/m2
07:10 40.3 °F /  4.6 °C 38.7 °F /  3.7 °C 30.6in /  1037.2hPa Calm     94% 0in /  0.0mm 0 W/m2
07:15 40.3 °F /  4.6 °C 38.7 °F /  3.7 °C 30.6in /  1037.2hPa Calm     94% 0in /  0.0mm 0 W/m2
07:20 40.3 °F /  4.6 °C 38.7 °F /  3.7 °C 30.6in /  1037.2hPa Calm     94% 0in /  0.0mm 0 W/m2
07:25 40.3 °F /  4.6 °C 38.7 °F /  3.7 °C 30.6in /  1037.2hPa Calm   1mph /  1.6km/h 94% 0in /  0.0mm 0 W/m2
07:30 40.3 °F /  4.6 °C 38.7 °F /  3.7 °C 30.6in /  1037.2hPa Calm     94% 0in /  0.0mm 0 W/m2
07:35 40.3 °F /  4.6 °C 38.7 °F /  3.7 °C 30.6in /  1037.2hPa Calm     94% 0in /  0.0mm 0 W/m2
07:41 40.3 °F /  4.6 °C 38.7 °F /  3.7 °C 30.6in /  1037.6hPa Calm   2mph /  3.2km/h 94% 0in /  0.0mm 0 W/m2
07:46 40.3 °F /  4.6 °C 38.7 °F /  3.7 °C 30.6in /  1037.2hPa Calm     94% 0in /  0.0mm 0 W/m2
07:51 40.3 °F /  4.6 °C 38.7 °F /  3.7 °C 30.6in /  1037.6hPa Calm   2mph /  3.2km/h 94% 0in /  0.0mm 0 W/m2
07:56 40.3 °F /  4.6 °C 38.7 °F /  3.7 °C 30.6in /  1037.6hPa Calm     94% 0in /  0.0mm 0 W/m2
08:01 40.3 °F /  4.6 °C 38.7 °F /  3.7 °C 30.6in /  1037.6hPa Calm     94% 0in /  0.0mm 0 W/m2
08:06 40.1 °F /  4.5 °C 38.5 °F /  3.6 °C 30.6in /  1037.6hPa Calm   2mph /  3.2km/h 94% 0in /  0.0mm 0 W/m2
08:11 40.3 °F /  4.6 °C 38.7 °F /  3.7 °C 30.6in /  1037.6hPa Calm     94% 0in /  0.0mm 0 W/m2
08:16 40.3 °F /  4.6 °C 38.7 °F /  3.7 °C 30.6in /  1037.6hPa NNW 2mph /  3.2km/h 2mph /  3.2km/h 94% 0in /  0.0mm 0 W/m2
08:21 40.3 °F /  4.6 °C 38.7 °F /  3.7 °C 30.6in /  1037.6hPa Calm     94% 0in /  0.0mm 0 W/m2
08:26 40.3 °F /  4.6 °C 38.7 °F /  3.7 °C 30.6in /  1037.6hPa Calm     94% 0in /  0.0mm 0 W/m2
08:31 40.3 °F /  4.6 °C 38.7 °F /  3.7 °C 30.6in /  1037.6hPa Calm     94% 0in /  0.0mm 0 W/m2
08:36 40.3 °F /  4.6 °C 38.7 °F /  3.7 °C 30.6in /  1037.6hPa Calm     94% 0in /  0.0mm 5 W/m2
08:41 40.3 °F /  4.6 °C 38.7 °F /  3.7 °C 30.6in /  1037.6hPa Calm     94% 0in /  0.0mm 7 W/m2
08:46 40.3 °F /  4.6 °C 38.7 °F /  3.7 °C 30.6in /  1037.6hPa Calm     94% 0in /  0.0mm 11 W/m2
08:51 40.3 °F /  4.6 °C 38.7 °F /  3.7 °C 30.6in /  1037.6hPa Calm   2mph /  3.2km/h 94% 0in /  0.0mm 12 W/m2
08:56 40.3 °F /  4.6 °C 38.7 °F /  3.7 °C 30.6in /  1037.6hPa Calm   2mph /  3.2km/h 94% 0in /  0.0mm 14 W/m2
09:01 40.5 °F /  4.7 °C 38.8 °F /  3.8 °C 30.7in /  1037.9hPa NW 2mph /  3.2km/h 2mph /  3.2km/h 94% 0in /  0.0mm 18 W/m2
09:06 40.5 °F /  4.7 °C 38.8 °F /  3.8 °C 30.6in /  1037.6hPa Calm   3mph /  4.8km/h 94% 0in /  0.0mm 21 W/m2
09:11 40.6 °F /  4.8 °C 39 °F /  3.9 °C 30.6in /  1037.6hPa NE 0.9mph /  1.4km/h 2mph /  3.2km/h 94% 0in /  0.0mm 25 W/m2
09:16 40.8 °F /  4.9 °C 39.2 °F /  4 °C 30.6in /  1037.6hPa Calm   4mph /  6.4km/h 94% 0in /  0.0mm 25 W/m2
09:21 40.8 °F /  4.9 °C 39.2 °F /  4 °C 30.6in /  1037.6hPa Calm   1mph /  1.6km/h 94% 0in /  0.0mm 30 W/m2
09:26 40.8 °F /  4.9 °C 39.2 °F /  4 °C 30.6in /  1037.2hPa Calm   3mph /  4.8km/h 94% 0in /  0.0mm 40 W/m2
09:31 41 °F /  5 °C 39.4 °F /  4.1 °C 30.6in /  1037.6hPa Calm   1mph /  1.6km/h 94% 0in /  0.0mm 44 W/m2
09:36 41.2 °F /  5.1 °C 39.6 °F /  4.2 °C 30.6in /  1037.2hPa North 2mph /  3.2km/h 2mph /  3.2km/h 94% 0in /  0.0mm 49 W/m2
09:41 41.2 °F /  5.1 °C 39.6 °F /  4.2 °C 30.6in /  1037.2hPa Calm     94% 0in /  0.0mm 53 W/m2
09:46 41.4 °F /  5.2 °C 39.7 °F /  4.3 °C 30.6in /  1037.6hPa Calm   1mph /  1.6km/h 94% 0in /  0.0mm 58 W/m2
09:51 41.4 °F /  5.2 °C 39.7 °F /  4.3 °C 30.6in /  1037.6hPa Calm   2mph /  3.2km/h 94% 0in /  0.0mm 56 W/m2
09:56 41.5 °F /  5.3 °C 39.7 °F /  4.3 °C 30.6in /  1037.6hPa ENE 2mph /  3.2km/h 3mph /  4.8km/h 93% 0in /  0.0mm 60 W/m2
10:01 41.5 °F /  5.3 °C 39.7 °F /  4.3 °C 30.6in /  1037.6hPa SE 2mph /  3.2km/h 2mph /  3.2km/h 93% 0in /  0.0mm 60 W/m2
10:06 41.7 °F /  5.4 °C 39.9 °F /  4.4 °C 30.6in /  1037.6hPa Calm   2mph /  3.2km/h 93% 0in /  0.0mm 65 W/m2
10:11 41.7 °F /  5.4 °C 39.9 °F /  4.4 °C 30.6in /  1037.6hPa East 2mph /  3.2km/h 3mph /  4.8km/h 93% 0in /  0.0mm 70 W/m2
10:16 41.9 °F /  5.5 °C 40.1 °F /  4.5 °C 30.6in /  1037.6hPa ESE 0.9mph /  1.4km/h 4mph /  6.4km/h 93% 0in /  0.0mm 79 W/m2
10:21 42.1 °F /  5.6 °C 40.3 °F /  4.6 °C 30.6in /  1037.6hPa SE 0.9mph /  1.4km/h 3mph /  4.8km/h 93% 0in /  0.0mm 91 W/m2
10:26 42.1 °F /  5.6 °C 40.3 °F /  4.6 °C 30.6in /  1037.6hPa East 2.9mph /  4.7km/h 5mph /  8km/h 93% 0in /  0.0mm 79 W/m2
10:31 42.1 °F /  5.6 °C 39.9 °F /  4.4 °C 30.6in /  1037.6hPa NE 0.9mph /  1.4km/h 2mph /  3.2km/h 92% 0in /  0.0mm 77 W/m2
10:36 42.3 °F /  5.7 °C 40.5 °F /  4.7 °C 30.7in /  1037.9hPa ENE 2mph /  3.2km/h 5mph /  8km/h 93% 0in /  0.0mm 90 W/m2
10:41 42.3 °F /  5.7 °C 40.5 °F /  4.7 °C 30.7in /  1037.9hPa SW 0.9mph /  1.4km/h 3mph /  4.8km/h 93% 0in /  0.0mm 91 W/m2
10:46 42.4 °F /  5.8 °C 40.3 °F /  4.6 °C 30.7in /  1037.9hPa East 2mph /  3.2km/h 4mph /  6.4km/h 92% 0in /  0.0mm 90 W/m2
10:51 42.4 °F /  5.8 °C 40.3 °F /  4.6 °C 30.7in /  1037.9hPa Calm   2mph /  3.2km/h 92% 0in /  0.0mm 118 W/m2
10:56 42.6 °F /  5.9 °C 40.5 °F /  4.7 °C 30.7in /  1037.9hPa ENE 2mph /  3.2km/h 6mph /  9.7km/h 92% 0in /  0.0mm 111 W/m2
11:01 43 °F /  6.1 °C 40.8 °F /  4.9 °C 30.7in /  1037.9hPa East 2mph /  3.2km/h 3mph /  4.8km/h 92% 0in /  0.0mm 146 W/m2
11:06 43.2 °F /  6.2 °C 41 °F /  5 °C 30.6in /  1037.6hPa NE 0.9mph /  1.4km/h 6mph /  9.7km/h 92% 0in /  0.0mm 114 W/m2
11:11 43.3 °F /  6.3 °C 40.8 °F /  4.9 °C 30.6in /  1037.6hPa ENE 2.9mph /  4.7km/h 4mph /  6.4km/h 91% 0in /  0.0mm 139 W/m2
11:16 43.3 °F /  6.3 °C 40.8 °F /  4.9 °C 30.6in /  1037.6hPa NE 4mph /  6.4km/h 6mph /  9.7km/h 91% 0in /  0.0mm 139 W/m2
11:21 43.7 °F /  6.5 °C 41.2 °F /  5.1 °C 30.6in /  1037.6hPa East 4.9mph /  7.9km/h 7mph /  11.3km/h 91% 0in /  0.0mm 171 W/m2
11:26 44.1 °F /  6.7 °C 41.4 °F /  5.2 °C 30.6in /  1037.6hPa East 2.9mph /  4.7km/h 6mph /  9.7km/h 90% 0in /  0.0mm 141 W/m2
11:31 44.1 °F /  6.7 °C 41 °F /  5 °C 30.6in /  1037.6hPa NE 4mph /  6.4km/h 5mph /  8km/h 89% 0in /  0.0mm 56 W/m2
11:36 44.2 °F /  6.8 °C 41.2 °F /  5.1 °C 30.6in /  1037.6hPa NE 2mph /  3.2km/h 5mph /  8km/h 89% 0in /  0.0mm 39 W/m2
11:41 44.2 °F /  6.8 °C 41.2 °F /  5.1 °C 30.6in /  1037.6hPa ENE 2mph /  3.2km/h 5mph /  8km/h 89% 0in /  0.0mm 53 W/m2
11:46 44.4 °F /  6.9 °C 41.2 °F /  5.1 °C 30.6in /  1037.6hPa ENE 2mph /  3.2km/h 3mph /  4.8km/h 88% 0in /  0.0mm 35 W/m2
11:51 44.6 °F /  7 °C 41 °F /  5 °C 30.6in /  1037.2hPa ESE 0.9mph /  1.4km/h 3mph /  4.8km/h 87% 0in /  0.0mm 40 W/m2
11:56 44.8 °F /  7.1 °C 40.8 °F /  4.9 °C 30.6in /  1037.2hPa ENE 2.9mph /  4.7km/h 6mph /  9.7km/h 86% 0in /  0.0mm 39 W/m2
12:01 45 °F /  7.2 °C 41 °F /  5 °C 30.6in /  1037.2hPa ENE 0.9mph /  1.4km/h 7mph /  11.3km/h 86% 0in /  0.0mm 58 W/m2
12:06 45.1 °F /  7.3 °C 40.8 °F /  4.9 °C 30.6in /  1037.2hPa ENE 6mph /  9.7km/h 9mph /  14.5km/h 85% 0in /  0.0mm 111 W/m2
12:11 45.3 °F /  7.4 °C 40.8 °F /  4.9 °C 30.6in /  1037.2hPa SSE 2mph /  3.2km/h 6mph /  9.7km/h 84% 0in /  0.0mm 111 W/m2
12:16 45.5 °F /  7.5 °C 40.6 °F /  4.8 °C 30.6in /  1036.9hPa SE 2mph /  3.2km/h 9mph /  14.5km/h 83% 0in /  0.0mm 100 W/m2
12:21 45.5 °F /  7.5 °C 40.6 °F /  4.8 °C 30.6in /  1036.9hPa North 2mph /  3.2km/h 3mph /  4.8km/h 83% 0in /  0.0mm 113 W/m2
12:26 45.5 °F /  7.5 °C 40.6 °F /  4.8 °C 30.6in /  1036.9hPa ESE 2mph /  3.2km/h 5mph /  8km/h 83% 0in /  0.0mm 104 W/m2
12:31 45.3 °F /  7.4 °C 40.5 °F /  4.7 °C 30.6in /  1036.9hPa ENE 4.9mph /  7.9km/h 5mph /  8km/h 83% 0in /  0.0mm 95 W/m2
12:36 45.5 °F /  7.5 °C 40.6 °F /  4.8 °C 30.6in /  1036.9hPa NE 2.9mph /  4.7km/h 4mph /  6.4km/h 83% 0in /  0.0mm 109 W/m2
12:41 45.7 °F /  7.6 °C 40.8 °F /  4.9 °C 30.6in /  1036.9hPa ESE 2mph /  3.2km/h 4mph /  6.4km/h 83% 0in /  0.0mm 120 W/m2
12:46 45.7 °F /  7.6 °C 40.8 °F /  4.9 °C 30.6in /  1036.9hPa ENE 4.9mph /  7.9km/h 8mph /  12.9km/h 83% 0in /  0.0mm 118 W/m2
12:51 45.7 °F /  7.6 °C 40.5 °F /  4.7 °C 30.6in /  1036.6hPa Calm   5mph /  8km/h 82% 0in /  0.0mm 127 W/m2
12:56 45.7 °F /  7.6 °C 40.1 °F /  4.5 °C 30.6in /  1036.6hPa ESE 0.9mph /  1.4km/h 5mph /  8km/h 81% 0in /  0.0mm 165 W/m2
13:01 45.9 °F /  7.7 °C 40.3 °F /  4.6 °C 30.6in /  1036.6hPa ESE 4mph /  6.4km/h 4mph /  6.4km/h 81% 0in /  0.0mm 144 W/m2
13:06 45.9 °F /  7.7 °C 40.1 °F /  4.5 °C 30.6in /  1036.6hPa ENE 2mph /  3.2km/h 8mph /  12.9km/h 80% 0in /  0.0mm 139 W/m2
13:11 46 °F /  7.8 °C 39.9 °F /  4.4 °C 30.6in /  1036.6hPa East 6mph /  9.7km/h 6mph /  9.7km/h 79% 0in /  0.0mm 156 W/m2
13:17 46 °F /  7.8 °C 39.6 °F /  4.2 °C 30.6in /  1036.6hPa East 2.9mph /  4.7km/h 8mph /  12.9km/h 78% 0in /  0.0mm 70 W/m2
13:22 45.9 °F /  7.7 °C 39 °F /  3.9 °C 30.6in /  1036.6hPa East 6.9mph /  11.1km/h 10mph /  16.1km/h 77% 0in /  0.0mm 120 W/m2
13:27 46 °F /  7.8 °C 38.8 °F /  3.8 °C 30.6in /  1036.2hPa East 4mph /  6.4km/h 9mph /  14.5km/h 76% 0in /  0.0mm 165 W/m2
13:32 46.2 °F /  7.9 °C 39.4 °F /  4.1 °C 30.6in /  1036.2hPa ESE 2.9mph /  4.7km/h 6mph /  9.7km/h 77% 0in /  0.0mm 128 W/m2
13:37 46.6 °F /  8.1 °C 39.4 °F /  4.1 °C 30.6in /  1036.2hPa ESE 6mph /  9.7km/h 7mph /  11.3km/h 76% 0in /  0.0mm 132 W/m2
13:42 46.6 °F /  8.1 °C 39.4 °F /  4.1 °C 30.6in /  1036.2hPa ESE 4mph /  6.4km/h 8mph /  12.9km/h 76% 0in /  0.0mm 100 W/m2
13:47 46.4 °F /  8 °C 38.8 °F /  3.8 °C 30.6in /  1036.2hPa SE 4mph /  6.4km/h 7mph /  11.3km/h 75% 0in /  0.0mm 116 W/m2
13:52 46.2 °F /  7.9 °C 39 °F /  3.9 °C 30.6in /  1036.2hPa ENE 4mph /  6.4km/h 9mph /  14.5km/h 76% 0in /  0.0mm 141 W/m2
13:57 46.2 °F /  7.9 °C 39 °F /  3.9 °C 30.6in /  1036.2hPa East 0.9mph /  1.4km/h 6mph /  9.7km/h 76% 0in /  0.0mm 142 W/m2
14:02 46.2 °F /  7.9 °C 39 °F /  3.9 °C 30.6in /  1036.2hPa ENE 6mph /  9.7km/h 7mph /  11.3km/h 76% 0in /  0.0mm 109 W/m2
14:07 46.2 °F /  7.9 °C 39 °F /  3.9 °C 30.6in /  1036.2hPa ESE 4mph /  6.4km/h 9mph /  14.5km/h 76% 0in /  0.0mm 137 W/m2
14:12 46.2 °F /  7.9 °C 39 °F /  3.9 °C 30.6in /  1035.9hPa ESE 4mph /  6.4km/h 6mph /  9.7km/h 76% 0in /  0.0mm 134 W/m2
14:17 46.2 °F /  7.9 °C 39 °F /  3.9 °C 30.6in /  1035.9hPa East 2.9mph /  4.7km/h 8mph /  12.9km/h 76% 0in /  0.0mm 121 W/m2
14:22 46 °F /  7.8 °C 38.8 °F /  3.8 °C 30.6in /  1035.9hPa SE 2mph /  3.2km/h 6mph /  9.7km/h 76% 0in /  0.0mm 84 W/m2
14:27 45.9 °F /  7.7 °C 39 °F /  3.9 °C 30.6in /  1035.9hPa SE 4mph /  6.4km/h 7mph /  11.3km/h 77% 0in /  0.0mm 113 W/m2
14:32 45.9 °F /  7.7 °C 39 °F /  3.9 °C 30.6in /  1035.6hPa East 6mph /  9.7km/h 7mph /  11.3km/h 77% 0in /  0.0mm 111 W/m2
14:37 45.9 °F /  7.7 °C 38.7 °F /  3.7 °C 30.6in /  1035.9hPa SE 2mph /  3.2km/h 4mph /  6.4km/h 76% 0in /  0.0mm 107 W/m2
14:42 45.9 °F /  7.7 °C 38.7 °F /  3.7 °C 30.6in /  1035.6hPa ESE 2mph /  3.2km/h 4mph /  6.4km/h 76% 0in /  0.0mm 91 W/m2
14:47 45.9 °F /  7.7 °C 39 °F /  3.9 °C 30.6in /  1035.6hPa ESE 4mph /  6.4km/h 5mph /  8km/h 77% 0in /  0.0mm 118 W/m2
14:52 46 °F /  7.8 °C 39.2 °F /  4 °C 30.6in /  1035.6hPa East 2.9mph /  4.7km/h 8mph /  12.9km/h 77% 0in /  0.0mm 72 W/m2
14:57 45.9 °F /  7.7 °C 38.7 °F /  3.7 °C 30.6in /  1035.6hPa ESE 4mph /  6.4km/h 12mph /  19.3km/h 76% 0in /  0.0mm 67 W/m2
15:02 45.9 °F /  7.7 °C 38.7 °F /  3.7 °C 30.6in /  1035.6hPa ESE 4mph /  6.4km/h 6mph /  9.7km/h 76% 0in /  0.0mm 69 W/m2
15:07 45.9 °F /  7.7 °C 38.7 °F /  3.7 °C 30.6in /  1035.6hPa ESE 4mph /  6.4km/h 10mph /  16.1km/h 76% 0in /  0.0mm 72 W/m2
15:12 45.7 °F /  7.6 °C 38.5 °F /  3.6 °C 30.6in /  1035.6hPa ESE 4mph /  6.4km/h 7mph /  11.3km/h 76% 0in /  0.0mm 40 W/m2
15:17 45.3 °F /  7.4 °C 38.5 °F /  3.6 °C 30.6in /  1035.6hPa East 2.9mph /  4.7km/h 7mph /  11.3km/h 77% 0in /  0.0mm 40 W/m2
15:22 45.1 °F /  7.3 °C 38.3 °F /  3.5 °C 30.6in /  1035.2hPa East 2mph /  3.2km/h 6mph /  9.7km/h 77% 0in /  0.0mm 40 W/m2
15:27 45 °F /  7.2 °C 38.5 °F /  3.6 °C 30.6in /  1035.2hPa SE 0.9mph /  1.4km/h 6mph /  9.7km/h 78% 0in /  0.0mm 32 W/m2
15:32 44.8 °F /  7.1 °C 38.3 °F /  3.5 °C 30.6in /  1035.2hPa East 4mph /  6.4km/h 9mph /  14.5km/h 78% 0in /  0.0mm 33 W/m2
15:37 44.8 °F /  7.1 °C 38.3 °F /  3.5 °C 30.6in /  1035.2hPa East 2mph /  3.2km/h 8mph /  12.9km/h 78% 0in /  0.0mm 54 W/m2
15:42 44.8 °F /  7.1 °C 38.3 °F /  3.5 °C 30.6in /  1035.2hPa ESE 4mph /  6.4km/h 6mph /  9.7km/h 78% 0in /  0.0mm 77 W/m2
15:47 44.8 °F /  7.1 °C 38.7 °F /  3.7 °C 30.6in /  1035.2hPa SE 4mph /  6.4km/h 8mph /  12.9km/h 79% 0in /  0.0mm 74 W/m2
15:52 45 °F /  7.2 °C 38.5 °F /  3.6 °C 30.6in /  1035.2hPa ESE 6mph /  9.7km/h 9mph /  14.5km/h 78% 0in /  0.0mm 60 W/m2
15:57 45.1 °F /  7.3 °C 38.7 °F /  3.7 °C 30.6in /  1035.2hPa ENE 0.9mph /  1.4km/h 4mph /  6.4km/h 78% 0in /  0.0mm 51 W/m2
16:02 45.1 °F /  7.3 °C 38.7 °F /  3.7 °C 30.6in /  1035.2hPa ESE 6mph /  9.7km/h 7mph /  11.3km/h 78% 0in /  0.0mm 44 W/m2
16:07 45.3 °F /  7.4 °C 38.5 °F /  3.6 °C 30.6in /  1035.2hPa ENE 2mph /  3.2km/h 7mph /  11.3km/h 77% 0in /  0.0mm 40 W/m2
16:12 45.1 °F /  7.3 °C 38.3 °F /  3.5 °C 30.6in /  1035.2hPa East 6.9mph /  11.1km/h 9mph /  14.5km/h 77% 0in /  0.0mm 35 W/m2
16:17 45.1 °F /  7.3 °C 38.7 °F /  3.7 °C 30.6in /  1035.2hPa ESE 6mph /  9.7km/h 6mph /  9.7km/h 78% 0in /  0.0mm 35 W/m2
16:22 45.1 °F /  7.3 °C 38.7 °F /  3.7 °C 30.6in /  1035.2hPa ENE 9mph /  14.5km/h 9mph /  14.5km/h 78% 0in /  0.0mm 32 W/m2
16:27 45 °F /  7.2 °C 38.1 °F /  3.4 °C 30.6in /  1034.9hPa ENE 2mph /  3.2km/h 7mph /  11.3km/h 77% 0in /  0.0mm 23 W/m2
16:32 45 °F /  7.2 °C 38.1 °F /  3.4 °C 30.6in /  1034.9hPa Calm   4mph /  6.4km/h 77% 0in /  0.0mm 23 W/m2
16:37 44.8 °F /  7.1 °C 38.3 °F /  3.5 °C 30.6in /  1034.9hPa East 2mph /  3.2km/h 6mph /  9.7km/h 78% 0in /  0.0mm 21 W/m2
16:42 44.6 °F /  7 °C 38.1 °F /  3.4 °C 30.6in /  1034.9hPa ENE 6mph /  9.7km/h 6mph /  9.7km/h 78% 0in /  0.0mm 19 W/m2
16:47 44.4 °F /  6.9 °C 37.9 °F /  3.3 °C 30.6in /  1034.5hPa East 2.9mph /  4.7km/h 7mph /  11.3km/h 78% 0in /  0.0mm 16 W/m2
16:52 44.2 °F /  6.8 °C 37.8 °F /  3.2 °C 30.6in /  1034.5hPa Calm   4mph /  6.4km/h 78% 0in /  0.0mm 12 W/m2
16:57 44.2 °F /  6.8 °C 38.1 °F /  3.4 °C 30.6in /  1034.5hPa NE 4.9mph /  7.9km/h 6mph /  9.7km/h 79% 0in /  0.0mm 9 W/m2
17:02 44.2 °F /  6.8 °C 38.1 °F /  3.4 °C 30.6in /  1034.5hPa SE 2mph /  3.2km/h 5mph /  8km/h 79% 0in /  0.0mm 7 W/m2
17:07 44.1 °F /  6.7 °C 37.9 °F /  3.3 °C 30.6in /  1034.5hPa ESE 2mph /  3.2km/h 5mph /  8km/h 79% 0in /  0.0mm 5 W/m2
17:12 44.1 °F /  6.7 °C 38.3 °F /  3.5 °C 30.6in /  1034.5hPa East 6mph /  9.7km/h 6mph /  9.7km/h 80% 0in /  0.0mm 0 W/m2
17:17 43.9 °F /  6.6 °C 38.1 °F /  3.4 °C 30.6in /  1034.5hPa East 2.9mph /  4.7km/h 7mph /  11.3km/h 80% 0in /  0.0mm 0 W/m2
17:22 43.9 °F /  6.6 °C 38.1 °F /  3.4 °C 30.5in /  1034.2hPa ENE 2.9mph /  4.7km/h 3mph /  4.8km/h 80% 0in /  0.0mm 0 W/m2
17:27 43.5 °F /  6.4 °C 38.1 °F /  3.4 °C 30.5in /  1034.2hPa ENE 2mph /  3.2km/h 5mph /  8km/h 81% 0in /  0.0mm 0 W/m2
17:32 43.5 °F /  6.4 °C 38.1 °F /  3.4 °C 30.5in /  1034.2hPa ENE 4mph /  6.4km/h 7mph /  11.3km/h 81% 0in /  0.0mm 0 W/m2
17:37 43.3 °F /  6.3 °C 37.9 °F /  3.3 °C 30.5in /  1034.2hPa SE 6.9mph /  11.1km/h 7mph /  11.3km/h 81% 0in /  0.0mm 0 W/m2
17:42 43.3 °F /  6.3 °C 37.9 °F /  3.3 °C 30.5in /  1034.2hPa ENE 2mph /  3.2km/h 6mph /  9.7km/h 81% 0in /  0.0mm 0 W/m2
17:47 43.2 °F /  6.2 °C 37.8 °F /  3.2 °C 30.5in /  1034.2hPa East 2mph /  3.2km/h 8mph /  12.9km/h 81% 0in /  0.0mm 0 W/m2
17:52 43 °F /  6.1 °C 37.6 °F /  3.1 °C 30.5in /  1034.2hPa ESE 2.9mph /  4.7km/h 6mph /  9.7km/h 81% 0in /  0.0mm 0 W/m2
17:57 42.6 °F /  5.9 °C 37.6 °F /  3.1 °C 30.5in /  1033.9hPa East 2mph /  3.2km/h 4mph /  6.4km/h 82% 0in /  0.0mm 0 W/m2
18:02 42.4 °F /  5.8 °C 37.4 °F /  3 °C 30.5in /  1033.9hPa East 0.9mph /  1.4km/h 4mph /  6.4km/h 82% 0in /  0.0mm 0 W/m2
18:07 42.3 °F /  5.7 °C 37.2 °F /  2.9 °C 30.5in /  1033.9hPa ESE 2.9mph /  4.7km/h 3mph /  4.8km/h 82% 0in /  0.0mm 0 W/m2
18:12 42.1 °F /  5.6 °C 37.2 °F /  2.9 °C 30.5in /  1033.9hPa East 4mph /  6.4km/h 7mph /  11.3km/h 83% 0in /  0.0mm 0 W/m2
18:17 42.1 °F /  5.6 °C 37.2 °F /  2.9 °C 30.5in /  1033.9hPa ESE 0.9mph /  1.4km/h 5mph /  8km/h 83% 0in /  0.0mm 0 W/m2
18:22 41.7 °F /  5.4 °C 36.9 °F /  2.7 °C 30.5in /  1033.9hPa East 2mph /  3.2km/h 6mph /  9.7km/h 83% 0in /  0.0mm 0 W/m2
18:27 41.5 °F /  5.3 °C 37 °F /  2.8 °C 30.5in /  1033.9hPa East 2.9mph /  4.7km/h 7mph /  11.3km/h 84% 0in /  0.0mm 0 W/m2
18:32 41.5 °F /  5.3 °C 37 °F /  2.8 °C 30.5in /  1033.9hPa East 2.9mph /  4.7km/h 9mph /  14.5km/h 84% 0in /  0.0mm 0 W/m2
18:37 41.5 °F /  5.3 °C 37 °F /  2.8 °C 30.5in /  1033.9hPa ESE 2.9mph /  4.7km/h 7mph /  11.3km/h 84% 0in /  0.0mm 0 W/m2
18:42 41.4 °F /  5.2 °C 36.9 °F /  2.7 °C 30.5in /  1033.9hPa ENE 4.9mph /  7.9km/h 8mph /  12.9km/h 84% 0in /  0.0mm 0 W/m2
18:47 41.4 °F /  5.2 °C 36.9 °F /  2.7 °C 30.5in /  1033.9hPa East 2mph /  3.2km/h 3mph /  4.8km/h 84% 0in /  0.0mm 0 W/m2
18:52 41.2 °F /  5.1 °C 36.7 °F /  2.6 °C 30.5in /  1033.5hPa East 4mph /  6.4km/h 8mph /  12.9km/h 84% 0in /  0.0mm 0 W/m2
18:57 41.2 °F /  5.1 °C 36.7 °F /  2.6 °C 30.5in /  1033.5hPa East 2mph /  3.2km/h 3mph /  4.8km/h 84% 0in /  0.0mm 0 W/m2
19:02 41 °F /  5 °C 36.5 °F /  2.5 °C 30.5in /  1033.5hPa East 4mph /  6.4km/h 8mph /  12.9km/h 84% 0in /  0.0mm 0 W/m2
19:07 40.8 °F /  4.9 °C 36.3 °F /  2.4 °C 30.5in /  1033.5hPa East 4mph /  6.4km/h 7mph /  11.3km/h 84% 0in /  0.0mm 0 W/m2
19:12 40.6 °F /  4.8 °C 36.1 °F /  2.3 °C 30.5in /  1033.5hPa SSE 2mph /  3.2km/h 3mph /  4.8km/h 84% 0in /  0.0mm 0 W/m2
19:17 40.5 °F /  4.7 °C 36.3 °F /  2.4 °C 30.5in /  1033.5hPa Calm   3mph /  4.8km/h 85% 0in /  0.0mm 0 W/m2
19:22 40.3 °F /  4.6 °C 36.1 °F /  2.3 °C 30.5in /  1033.2hPa ESE 2mph /  3.2km/h 6mph /  9.7km/h 85% 0in /  0.0mm 0 W/m2
19:27 40.3 °F /  4.6 °C 36.1 °F /  2.3 °C 30.5in /  1033.2hPa Calm   4mph /  6.4km/h 85% 0in /  0.0mm 0 W/m2
19:32 39.9 °F /  4.4 °C 35.8 °F /  2.1 °C 30.5in /  1033.5hPa ESE 2mph /  3.2km/h 8mph /  12.9km/h 85% 0in /  0.0mm 0 W/m2
19:37 39.9 °F /  4.4 °C 36.1 °F /  2.3 °C 30.5in /  1033.5hPa Calm   7mph /  11.3km/h 86% 0in /  0.0mm 0 W/m2
19:42 39.9 °F /  4.4 °C 35.8 °F /  2.1 °C 30.5in /  1033.5hPa Calm   8mph /  12.9km/h 85% 0in /  0.0mm 0 W/m2
19:47 39.6 °F /  4.2 °C 35.8 °F /  2.1 °C 30.5in /  1033.5hPa Calm   2mph /  3.2km/h 86% 0in /  0.0mm 0 W/m2
19:52 39.4 °F /  4.1 °C 35.6 °F /  2 °C 30.5in /  1033.2hPa Calm   3mph /  4.8km/h 86% 0in /  0.0mm 0 W/m2
19:57 39 °F /  3.9 °C 35.2 °F /  1.8 °C 30.5in /  1033.2hPa ESE 2mph /  3.2km/h 3mph /  4.8km/h 86% 0in /  0.0mm 0 W/m2
20:02 39 °F /  3.9 °C 35.4 °F /  1.9 °C 30.5in /  1033.2hPa East 0.9mph /  1.4km/h 4mph /  6.4km/h 87% 0in /  0.0mm 0 W/m2
20:07 39 °F /  3.9 °C 35.4 °F /  1.9 °C 30.5in /  1033.5hPa Calm   3mph /  4.8km/h 87% 0in /  0.0mm 0 W/m2
20:12 39 °F /  3.9 °C 35.4 °F /  1.9 °C 30.5in /  1033.9hPa East 0.9mph /  1.4km/h 3mph /  4.8km/h 87% 0in /  0.0mm 0 W/m2
20:17 39.2 °F /  4 °C 35.6 °F /  2 °C 30.5in /  1033.9hPa Calm     87% 0in /  0.0mm 0 W/m2
20:23 39 °F /  3.9 °C 35.4 °F /  1.9 °C 30.5in /  1033.9hPa Calm     87% 0in /  0.0mm 0 W/m2
20:28 39 °F /  3.9 °C 35.8 °F /  2.1 °C 30.5in /  1033.9hPa East 2mph /  3.2km/h 3mph /  4.8km/h 88% 0in /  0.0mm 0 W/m2
20:33 39.2 °F /  4 °C 36 °F /  2.2 °C 30.5in /  1033.9hPa East 0.9mph /  1.4km/h 3mph /  4.8km/h 88% 0in /  0.0mm 0 W/m2
20:38 39.4 °F /  4.1 °C 35.8 °F /  2.1 °C 30.5in /  1033.9hPa ESE 2mph /  3.2km/h 3mph /  4.8km/h 87% 0in /  0.0mm 0 W/m2
20:43 39.6 °F /  4.2 °C 36 °F /  2.2 °C 30.5in /  1033.9hPa ESE 2mph /  3.2km/h 3mph /  4.8km/h 87% 0in /  0.0mm 0 W/m2
20:48 39.6 °F /  4.2 °C 36 °F /  2.2 °C 30.5in /  1033.5hPa ESE 2mph /  3.2km/h 4mph /  6.4km/h 87% 0in /  0.0mm 0 W/m2
20:53 39.4 °F /  4.1 °C 35.8 °F /  2.1 °C 30.5in /  1033.5hPa ESE 0.9mph /  1.4km/h 3mph /  4.8km/h 87% 0in /  0.0mm 0 W/m2
20:58 39.4 °F /  4.1 °C 35.8 °F /  2.1 °C 30.5in /  1033.5hPa Calm   2mph /  3.2km/h 87% 0in /  0.0mm 0 W/m2
21:03 39.2 °F /  4 °C 35.6 °F /  2 °C 30.5in /  1033.5hPa Calm     87% 0in /  0.0mm 0 W/m2
21:08 39 °F /  3.9 °C 35.8 °F /  2.1 °C 30.5in /  1033.9hPa Calm   2mph /  3.2km/h 88% 0in /  0.0mm 0 W/m2
21:13 39 °F /  3.9 °C 35.8 °F /  2.1 °C 30.5in /  1033.5hPa Calm     88% 0in /  0.0mm 0 W/m2
21:18 39 °F /  3.9 °C 35.8 °F /  2.1 °C 30.5in /  1033.5hPa ESE 0.9mph /  1.4km/h 3mph /  4.8km/h 88% 0in /  0.0mm 0 W/m2
21:23 39.4 °F /  4.1 °C 36.1 °F /  2.3 °C 30.5in /  1033.5hPa ESE 2mph /  3.2km/h 3mph /  4.8km/h 88% 0in /  0.0mm 0 W/m2
21:28 39.4 °F /  4.1 °C 36.1 °F /  2.3 °C 30.5in /  1033.2hPa East 2mph /  3.2km/h 3mph /  4.8km/h 88% 0in /  0.0mm 0 W/m2
21:33 39.6 °F /  4.2 °C 36 °F /  2.2 °C 30.5in /  1033.2hPa East 2.9mph /  4.7km/h 3mph /  4.8km/h 87% 0in /  0.0mm 0 W/m2
21:38 39.6 °F /  4.2 °C 36 °F /  2.2 °C 30.5in /  1033.2hPa East 2.9mph /  4.7km/h 4mph /  6.4km/h 87% 0in /  0.0mm 0 W/m2
21:43 39.6 °F /  4.2 °C 36 °F /  2.2 °C 30.5in /  1033.2hPa ESE 0.9mph /  1.4km/h 2mph /  3.2km/h 87% 0in /  0.0mm 0 W/m2
21:48 39.6 °F /  4.2 °C 36 °F /  2.2 °C 30.5in /  1033.2hPa East 2mph /  3.2km/h 3mph /  4.8km/h 87% 0in /  0.0mm 0 W/m2
21:53 39.6 °F /  4.2 °C 36 °F /  2.2 °C 30.5in /  1033.2hPa ESE 2mph /  3.2km/h 3mph /  4.8km/h 87% 0in /  0.0mm 0 W/m2
21:58 39.7 °F /  4.3 °C 36.1 °F /  2.3 °C 30.5in /  1033.2hPa SE 0.9mph /  1.4km/h 4mph /  6.4km/h 87% 0in /  0.0mm 0 W/m2
22:03 39.7 °F /  4.3 °C 36.1 °F /  2.3 °C 30.5in /  1033.2hPa East 2mph /  3.2km/h 4mph /  6.4km/h 87% 0in /  0.0mm 0 W/m2
22:08 39.9 °F /  4.4 °C 36.3 °F /  2.4 °C 30.5in /  1032.8hPa ESE 2mph /  3.2km/h 4mph /  6.4km/h 87% 0in /  0.0mm 0 W/m2
22:13 39.9 °F /  4.4 °C 36.3 °F /  2.4 °C 30.5in /  1032.8hPa ENE 4mph /  6.4km/h 4mph /  6.4km/h 87% 0in /  0.0mm 0 W/m2
22:18 39.9 °F /  4.4 °C 36.1 °F /  2.3 °C 30.5in /  1032.8hPa ESE 2mph /  3.2km/h 6mph /  9.7km/h 86% 0in /  0.0mm 0 W/m2
22:23 39.9 °F /  4.4 °C 36.1 °F /  2.3 °C 30.5in /  1032.5hPa ESE 2.9mph /  4.7km/h 4mph /  6.4km/h 86% 0in /  0.0mm 0 W/m2
22:28 39.9 °F /  4.4 °C 36.1 °F /  2.3 °C 30.5in /  1032.5hPa East 2.9mph /  4.7km/h 4mph /  6.4km/h 86% 0in /  0.0mm 0 W/m2
22:33 39.9 °F /  4.4 °C 36.1 °F /  2.3 °C 30.5in /  1032.5hPa ESE 2.9mph /  4.7km/h 6mph /  9.7km/h 86% 0in /  0.0mm 0 W/m2
22:38 39.9 °F /  4.4 °C 36.3 °F /  2.4 °C 30.5in /  1032.5hPa ESE 2.9mph /  4.7km/h 6mph /  9.7km/h 87% 0in /  0.0mm 0 W/m2
22:43 39.9 °F /  4.4 °C 36.3 °F /  2.4 °C 30.5in /  1032.8hPa ESE 2.9mph /  4.7km/h 4mph /  6.4km/h 87% 0in /  0.0mm 0 W/m2
22:48 39.9 °F /  4.4 °C 36.3 °F /  2.4 °C 30.5in /  1032.8hPa ESE 2.9mph /  4.7km/h 4mph /  6.4km/h 87% 0in /  0.0mm 0 W/m2
22:53 39.9 °F /  4.4 °C 36.3 °F /  2.4 °C 30.5in /  1032.8hPa Calm   6mph /  9.7km/h 87% 0in /  0.0mm 0 W/m2
22:58 39.9 °F /  4.4 °C 36.3 °F /  2.4 °C 30.5in /  1032.8hPa ESE 2mph /  3.2km/h 3mph /  4.8km/h 87% 0in /  0.0mm 0 W/m2
23:03 39.9 °F /  4.4 °C 36.3 °F /  2.4 °C 30.5in /  1032.8hPa ESE 2mph /  3.2km/h 4mph /  6.4km/h 87% 0in /  0.0mm 0 W/m2
23:08 39.9 °F /  4.4 °C 36.3 °F /  2.4 °C 30.5in /  1032.8hPa East 2.9mph /  4.7km/h 9mph /  14.5km/h 87% 0in /  0.0mm 0 W/m2
23:13 39.9 °F /  4.4 °C 36.3 °F /  2.4 °C 30.5in /  1032.8hPa East 2mph /  3.2km/h 4mph /  6.4km/h 87% 0in /  0.0mm 0 W/m2
23:18 39.9 °F /  4.4 °C 36.3 °F /  2.4 °C 30.5in /  1032.8hPa ESE 6mph /  9.7km/h 8mph /  12.9km/h 87% 0in /  0.0mm 0 W/m2
23:23 39.9 °F /  4.4 °C 36.3 °F /  2.4 °C 30.5in /  1032.8hPa ESE 2.9mph /  4.7km/h 4mph /  6.4km/h 87% 0in /  0.0mm 0 W/m2
23:28 39.9 °F /  4.4 °C 36.3 °F /  2.4 °C 30.5in /  1032.8hPa ESE 2mph /  3.2km/h 6mph /  9.7km/h 87% 0in /  0.0mm 0 W/m2
23:33 39.9 °F /  4.4 °C 36.1 °F /  2.3 °C 30.5in /  1032.5hPa ESE 2.9mph /  4.7km/h 6mph /  9.7km/h 86% 0in /  0.0mm 0 W/m2
23:38 40.1 °F /  4.5 °C 36.3 °F /  2.4 °C 30.5in /  1032.5hPa East 2mph /  3.2km/h 3mph /  4.8km/h 86% 0in /  0.0mm 0 W/m2
23:43 40.1 °F /  4.5 °C 36.3 °F /  2.4 °C 30.5in /  1032.5hPa East 2mph /  3.2km/h 7mph /  11.3km/h 86% 0in /  0.0mm 0 W/m2
23:48 40.1 °F /  4.5 °C 36.3 °F /  2.4 °C 30.5in /  1032.5hPa ESE 4mph /  6.4km/h 5mph /  8km/h 86% 0in /  0.0mm 0 W/m2
23:53 40.1 °F /  4.5 °C 36.3 °F /  2.4 °C 30.5in /  1032.2hPa ESE 2.9mph /  4.7km/h 4mph /  6.4km/h 86% 0in /  0.0mm 0 W/m2
23:58 40.1 °F /  4.5 °C 36.3 °F /  2.4 °C 30.5in /  1032.2hPa East 0.9mph /  1.4km/h 3mph /  4.8km/h 86% 0in /  0.0mm 0 W/m2
Juneau County Weather
Compliments of Weather Underground - 4 mb